sensor_id;sensor_type;location;lat;lon;timestamp;temperature;humidity
2767;DHT22;1391;46.74287300;11.63683300;2023-04-15T00:01:11;3.20;73.30
2767;DHT22;1391;46.74287300;11.63683300;2023-04-15T00:03:45;3.20;72.50
2767;DHT22;1391;46.74287300;11.63683300;2023-04-15T00:06:13;3.40;73.80
2767;DHT22;1391;46.74287300;11.63683300;2023-04-15T00:08:41;3.30;73.50
2767;DHT22;1391;46.74287300;11.63683300;2023-04-15T00:11:08;3.10;72.00
2767;DHT22;1391;46.74287300;11.63683300;2023-04-15T00:13:35;3.20;71.10
2767;DHT22;1391;46.74287300;11.63683300;2023-04-15T00:16:04;3.40;70.50
2767;DHT22;1391;46.74287300;11.63683300;2023-04-15T00:18:32;3.70;70.60
2767;DHT22;1391;46.74287300;11.63683300;2023-04-15T00:21:00;3.40;70.70
2767;DHT22;1391;46.74287300;11.63683300;2023-04-15T00:23:28;3.40;71.30
2767;DHT22;1391;46.74287300;11.63683300;2023-04-15T00:25:55;3.20;73.20
2767;DHT22;1391;46.74287300;11.63683300;2023-04-15T00:28:23;3.30;73.30
2767;DHT22;1391;46.74287300;11.63683300;2023-04-15T00:30:50;3.20;72.40
2767;DHT22;1391;46.74287300;11.63683300;2023-04-15T00:33:17;3.50;72.60
2767;DHT22;1391;46.74287300;11.63683300;2023-04-15T00:35:45;3.10;73.60
2767;DHT22;1391;46.74287300;11.63683300;2023-04-15T00:38:13;3.00;76.10
2767;DHT22;1391;46.74287300;11.63683300;2023-04-15T00:40:41;3.10;76.50
2767;DHT22;1391;46.74287300;11.63683300;2023-04-15T00:43:08;2.80;75.40
2767;DHT22;1391;46.74287300;11.63683300;2023-04-15T00:45:36;2.90;75.50
2767;DHT22;1391;46.74287300;11.63683300;2023-04-15T00:48:04;3.20;78.00
2767;DHT22;1391;46.74287300;11.63683300;2023-04-15T00:50:32;3.00;81.10
2767;DHT22;1391;46.74287300;11.63683300;2023-04-15T00:52:59;2.60;84.10
2767;DHT22;1391;46.74287300;11.63683300;2023-04-15T00:55:28;2.80;82.70
2767;DHT22;1391;46.74287300;11.63683300;2023-04-15T00:57:56;3.10;81.50
2767;DHT22;1391;46.74287300;11.63683300;2023-04-15T01:00:23;3.00;79.50
2767;DHT22;1391;46.74287300;11.63683300;2023-04-15T01:02:51;3.40;79.80
2767;DHT22;1391;46.74287300;11.63683300;2023-04-15T01:05:19;2.60;82.40
2767;DHT22;1391;46.74287300;11.63683300;2023-04-15T01:07:46;2.80;83.00
2767;DHT22;1391;46.74287300;11.63683300;2023-04-15T01:10:14;3.10;83.20
2767;DHT22;1391;46.74287300;11.63683300;2023-04-15T01:12:43;2.90;81.70
2767;DHT22;1391;46.74287300;11.63683300;2023-04-15T01:15:11;2.80;82.80
2767;DHT22;1391;46.74287300;11.63683300;2023-04-15T01:17:39;2.70;82.70
2767;DHT22;1391;46.74287300;11.63683300;2023-04-15T01:20:07;2.40;84.40
2767;DHT22;1391;46.74287300;11.63683300;2023-04-15T01:22:37;2.70;88.70
2767;DHT22;1391;46.74287300;11.63683300;2023-04-15T01:25:08;2.40;88.90
2767;DHT22;1391;46.74287300;11.63683300;2023-04-15T01:27:39;2.80;89.10
2767;DHT22;1391;46.74287300;11.63683300;2023-04-15T01:30:09;2.50;89.50
2767;DHT22;1391;46.74287300;11.63683300;2023-04-15T01:32:37;2.80;90.30
2767;DHT22;1391;46.74287300;11.63683300;2023-04-15T01:35:05;2.80;88.60
2767;DHT22;1391;46.74287300;11.63683300;2023-04-15T01:37:33;2.70;86.70
2767;DHT22;1391;46.74287300;11.63683300;2023-04-15T01:40:00;2.80;85.80
2767;DHT22;1391;46.74287300;11.63683300;2023-04-15T01:42:28;2.50;87.60
2767;DHT22;1391;46.74287300;11.63683300;2023-04-15T01:44:56;2.90;87.30
2767;DHT22;1391;46.74287300;11.63683300;2023-04-15T01:47:24;2.50;87.70
2767;DHT22;1391;46.74287300;11.63683300;2023-04-15T01:49:52;2.80;87.40
2767;DHT22;1391;46.74287300;11.63683300;2023-04-15T01:52:19;2.70;86.20
2767;DHT22;1391;46.74287300;11.63683300;2023-04-15T01:54:47;2.40;87.80
2767;DHT22;1391;46.74287300;11.63683300;2023-04-15T01:57:14;2.30;90.10
2767;DHT22;1391;46.74287300;11.63683300;2023-04-15T01:59:42;2.50;90.20
2767;DHT22;1391;46.74287300;11.63683300;2023-04-15T02:02:11;2.40;90.00
2767;DHT22;1391;46.74287300;11.63683300;2023-04-15T02:04:38;2.60;88.60
2767;DHT22;1391;46.74287300;11.63683300;2023-04-15T02:07:05;2.50;89.70
2767;DHT22;1391;46.74287300;11.63683300;2023-04-15T02:09:33;2.00;90.20
2767;DHT22;1391;46.74287300;11.63683300;2023-04-15T02:12:00;2.30;90.10
2767;DHT22;1391;46.74287300;11.63683300;2023-04-15T02:14:27;2.50;89.00
2767;DHT22;1391;46.74287300;11.63683300;2023-04-15T02:16:55;2.50;88.50
2767;DHT22;1391;46.74287300;11.63683300;2023-04-15T02:19:24;2.60;88.90
2767;DHT22;1391;46.74287300;11.63683300;2023-04-15T02:21:51;2.30;90.90
2767;DHT22;1391;46.74287300;11.63683300;2023-04-15T02:24:19;2.30;91.50
2767;DHT22;1391;46.74287300;11.63683300;2023-04-15T02:26:47;2.30;91.40
2767;DHT22;1391;46.74287300;11.63683300;2023-04-15T02:29:14;2.00;90.80
2767;DHT22;1391;46.74287300;11.63683300;2023-04-15T02:31:42;2.10;90.50
2767;DHT22;1391;46.74287300;11.63683300;2023-04-15T02:34:10;1.90;91.40
2767;DHT22;1391;46.74287300;11.63683300;2023-04-15T02:36:40;2.20;92.50
2767;DHT22;1391;46.74287300;11.63683300;2023-04-15T02:39:07;2.40;93.40
2767;DHT22;1391;46.74287300;11.63683300;2023-04-15T02:41:34;2.20;97.60
2767;DHT22;1391;46.74287300;11.63683300;2023-04-15T02:44:02;2.40;99.90
2767;DHT22;1391;46.74287300;11.63683300;2023-04-15T02:46:31;2.10;99.90
2767;DHT22;1391;46.74287300;11.63683300;2023-04-15T02:48:59;2.40;99.90
2767;DHT22;1391;46.74287300;11.63683300;2023-04-15T02:51:29;2.10;99.90
2767;DHT22;1391;46.74287300;11.63683300;2023-04-15T02:53:58;2.20;99.90
2767;DHT22;1391;46.74287300;11.63683300;2023-04-15T02:56:26;2.20;99.90
2767;DHT22;1391;46.74287300;11.63683300;2023-04-15T02:58:53;2.10;99.90
2767;DHT22;1391;46.74287300;11.63683300;2023-04-15T03:01:21;2.30;99.90
2767;DHT22;1391;46.74287300;11.63683300;2023-04-15T03:03:48;2.40;99.90
2767;DHT22;1391;46.74287300;11.63683300;2023-04-15T03:06:16;2.20;99.90
2767;DHT22;1391;46.74287300;11.63683300;2023-04-15T03:08:45;2.20;99.90
2767;DHT22;1391;46.74287300;11.63683300;2023-04-15T03:11:14;2.20;99.90
2767;DHT22;1391;46.74287300;11.63683300;2023-04-15T03:13:41;2.20;99.90
2767;DHT22;1391;46.74287300;11.63683300;2023-04-15T03:16:09;2.20;99.90
2767;DHT22;1391;46.74287300;11.63683300;2023-04-15T03:18:36;2.20;99.90
2767;DHT22;1391;46.74287300;11.63683300;2023-04-15T03:21:03;2.20;99.90
2767;DHT22;1391;46.74287300;11.63683300;2023-04-15T03:23:31;2.20;99.90
2767;DHT22;1391;46.74287300;11.63683300;2023-04-15T03:26:01;2.20;99.90
2767;DHT22;1391;46.74287300;11.63683300;2023-04-15T03:28:30;2.10;99.90
2767;DHT22;1391;46.74287300;11.63683300;2023-04-15T03:30:58;2.40;99.90
2767;DHT22;1391;46.74287300;11.63683300;2023-04-15T03:33:25;2.10;99.90
2767;DHT22;1391;46.74287300;11.63683300;2023-04-15T03:35:52;2.40;99.90
2767;DHT22;1391;46.74287300;11.63683300;2023-04-15T03:38:20;2.20;99.90
2767;DHT22;1391;46.74287300;11.63683300;2023-04-15T03:40:47;2.00;99.90
2767;DHT22;1391;46.74287300;11.63683300;2023-04-15T03:43:14;2.20;99.90
2767;DHT22;1391;46.74287300;11.63683300;2023-04-15T03:45:43;2.20;99.90
2767;DHT22;1391;46.74287300;11.63683300;2023-04-15T03:48:11;2.20;99.90
2767;DHT22;1391;46.74287300;11.63683300;2023-04-15T03:50:38;2.10;99.90
2767;DHT22;1391;46.74287300;11.63683300;2023-04-15T03:53:05;2.40;99.90
2767;DHT22;1391;46.74287300;11.63683300;2023-04-15T03:55:33;2.20;99.90
2767;DHT22;1391;46.74287300;11.63683300;2023-04-15T03:58:01;2.10;99.90
2767;DHT22;1391;46.74287300;11.63683300;2023-04-15T04:00:29;2.20;99.90
2767;DHT22;1391;46.74287300;11.63683300;2023-04-15T04:02:57;2.40;99.90
2767;DHT22;1391;46.74287300;11.63683300;2023-04-15T04:05:25;2.10;99.90
2767;DHT22;1391;46.74287300;11.63683300;2023-04-15T04:07:52;2.40;99.90
2767;DHT22;1391;46.74287300;11.63683300;2023-04-15T04:10:20;2.10;99.90
2767;DHT22;1391;46.74287300;11.63683300;2023-04-15T04:12:47;2.30;99.90
2767;DHT22;1391;46.74287300;11.63683300;2023-04-15T04:15:14;2.40;99.90
2767;DHT22;1391;46.74287300;11.63683300;2023-04-15T04:17:42;2.10;99.90
2767;DHT22;1391;46.74287300;11.63683300;2023-04-15T04:20:12;2.30;99.90
2767;DHT22;1391;46.74287300;11.63683300;2023-04-15T04:22:39;2.40;99.90
2767;DHT22;1391;46.74287300;11.63683300;2023-04-15T04:25:08;2.20;99.90
2767;DHT22;1391;46.74287300;11.63683300;2023-04-15T04:27:36;2.10;99.90
2767;DHT22;1391;46.74287300;11.63683300;2023-04-15T04:30:05;2.40;99.90
2767;DHT22;1391;46.74287300;11.63683300;2023-04-15T04:32:33;2.20;99.90
2767;DHT22;1391;46.74287300;11.63683300;2023-04-15T04:35:01;2.20;99.90
2767;DHT22;1391;46.74287300;11.63683300;2023-04-15T04:37:30;2.10;99.90
2767;DHT22;1391;46.74287300;11.63683300;2023-04-15T04:39:57;2.30;99.90
2767;DHT22;1391;46.74287300;11.63683300;2023-04-15T04:42:25;2.40;99.90
2767;DHT22;1391;46.74287300;11.63683300;2023-04-15T04:44:52;2.10;99.90
2767;DHT22;1391;46.74287300;11.63683300;2023-04-15T04:47:20;2.40;99.90
2767;DHT22;1391;46.74287300;11.63683300;2023-04-15T04:49:47;2.20;99.90
2767;DHT22;1391;46.74287300;11.63683300;2023-04-15T04:52:14;2.20;99.90
2767;DHT22;1391;46.74287300;11.63683300;2023-04-15T04:54:43;2.10;99.90
2767;DHT22;1391;46.74287300;11.63683300;2023-04-15T04:57:10;2.30;99.90
2767;DHT22;1391;46.74287300;11.63683300;2023-04-15T04:59:39;2.40;99.90
2767;DHT22;1391;46.74287300;11.63683300;2023-04-15T05:02:06;2.10;99.90
2767;DHT22;1391;46.74287300;11.63683300;2023-04-15T05:04:35;2.30;99.90
2767;DHT22;1391;46.74287300;11.63683300;2023-04-15T05:07:03;2.50;99.90
2767;DHT22;1391;46.74287300;11.63683300;2023-04-15T05:09:30;2.40;99.90
2767;DHT22;1391;46.74287300;11.63683300;2023-04-15T05:12:03;2.20;99.90
2767;DHT22;1391;46.74287300;11.63683300;2023-04-15T05:14:30;2.10;99.90
2767;DHT22;1391;46.74287300;11.63683300;2023-04-15T05:16:58;2.30;99.90
2767;DHT22;1391;46.74287300;11.63683300;2023-04-15T05:19:26;2.50;99.90
2767;DHT22;1391;46.74287300;11.63683300;2023-04-15T05:21:53;2.50;99.90
2767;DHT22;1391;46.74287300;11.63683300;2023-04-15T05:24:20;2.50;99.90
2767;DHT22;1391;46.74287300;11.63683300;2023-04-15T05:26:48;2.50;99.90
2767;DHT22;1391;46.74287300;11.63683300;2023-04-15T05:29:17;2.60;99.90
2767;DHT22;1391;46.74287300;11.63683300;2023-04-15T05:31:44;2.60;99.90
2767;DHT22;1391;46.74287300;11.63683300;2023-04-15T05:34:12;2.60;99.90
2767;DHT22;1391;46.74287300;11.63683300;2023-04-15T05:36:40;2.60;99.90
2767;DHT22;1391;46.74287300;11.63683300;2023-04-15T05:39:08;2.80;99.90
2767;DHT22;1391;46.74287300;11.63683300;2023-04-15T05:41:35;3.20;99.90
2767;DHT22;1391;46.74287300;11.63683300;2023-04-15T05:44:02;2.90;99.90
2767;DHT22;1391;46.74287300;11.63683300;2023-04-15T05:46:32;2.90;99.90
2767;DHT22;1391;46.74287300;11.63683300;2023-04-15T05:48:59;2.90;99.90
2767;DHT22;1391;46.74287300;11.63683300;2023-04-15T05:51:27;2.90;99.90
2767;DHT22;1391;46.74287300;11.63683300;2023-04-15T05:53:54;2.90;99.90
2767;DHT22;1391;46.74287300;11.63683300;2023-04-15T05:56:22;3.10;99.90
2767;DHT22;1391;46.74287300;11.63683300;2023-04-15T05:58:51;3.60;99.90
2767;DHT22;1391;46.74287300;11.63683300;2023-04-15T06:01:19;3.20;99.90
2767;DHT22;1391;46.74287300;11.63683300;2023-04-15T06:03:48;3.40;99.90
2767;DHT22;1391;46.74287300;11.63683300;2023-04-15T06:06:21;3.30;99.90
2767;DHT22;1391;46.74287300;11.63683300;2023-04-15T06:08:51;3.00;99.90
2767;DHT22;1391;46.74287300;11.63683300;2023-04-15T06:11:20;3.20;99.90
2767;DHT22;1391;46.74287300;11.63683300;2023-04-15T06:13:48;3.30;99.90
2767;DHT22;1391;46.74287300;11.63683300;2023-04-15T06:16:15;3.60;99.90
2767;DHT22;1391;46.74287300;11.63683300;2023-04-15T06:18:43;3.60;99.90
2767;DHT22;1391;46.74287300;11.63683300;2023-04-15T06:21:11;3.20;99.90
2767;DHT22;1391;46.74287300;11.63683300;2023-04-15T06:23:39;4.00;99.90
2767;DHT22;1391;46.74287300;11.63683300;2023-04-15T06:26:07;3.90;99.90
2767;DHT22;1391;46.74287300;11.63683300;2023-04-15T06:28:34;3.70;99.90
2767;DHT22;1391;46.74287300;11.63683300;2023-04-15T06:31:01;3.60;99.90
2767;DHT22;1391;46.74287300;11.63683300;2023-04-15T06:33:29;3.70;99.90
2767;DHT22;1391;46.74287300;11.63683300;2023-04-15T06:35:57;4.00;99.90
2767;DHT22;1391;46.74287300;11.63683300;2023-04-15T06:38:26;3.80;99.90
2767;DHT22;1391;46.74287300;11.63683300;2023-04-15T06:40:53;4.10;99.90
2767;DHT22;1391;46.74287300;11.63683300;2023-04-15T06:43:20;4.30;99.90
2767;DHT22;1391;46.74287300;11.63683300;2023-04-15T06:45:48;4.20;99.90
2767;DHT22;1391;46.74287300;11.63683300;2023-04-15T06:48:16;4.40;99.00
2767;DHT22;1391;46.74287300;11.63683300;2023-04-15T06:50:45;4.20;96.10
2767;DHT22;1391;46.74287300;11.63683300;2023-04-15T06:53:12;4.70;96.70
2767;DHT22;1391;46.74287300;11.63683300;2023-04-15T06:55:42;4.60;95.30
2767;DHT22;1391;46.74287300;11.63683300;2023-04-15T06:58:10;4.70;97.60
2767;DHT22;1391;46.74287300;11.63683300;2023-04-15T07:00:38;4.60;99.90
2767;DHT22;1391;46.74287300;11.63683300;2023-04-15T07:03:05;4.70;99.90
2767;DHT22;1391;46.74287300;11.63683300;2023-04-15T07:05:35;4.90;99.40
2767;DHT22;1391;46.74287300;11.63683300;2023-04-15T07:08:03;4.70;95.20
2767;DHT22;1391;46.74287300;11.63683300;2023-04-15T07:10:31;4.90;94.60
2767;DHT22;1391;46.74287300;11.63683300;2023-04-15T07:13:00;5.00;93.30
2767;DHT22;1391;46.74287300;11.63683300;2023-04-15T07:15:27;5.00;94.50
2767;DHT22;1391;46.74287300;11.63683300;2023-04-15T07:17:55;5.00;90.10
2767;DHT22;1391;46.74287300;11.63683300;2023-04-15T07:20:22;5.10;85.10
2767;DHT22;1391;46.74287300;11.63683300;2023-04-15T07:22:49;5.70;83.50
2767;DHT22;1391;46.74287300;11.63683300;2023-04-15T07:25:17;5.30;78.30
2767;DHT22;1391;46.74287300;11.63683300;2023-04-15T07:27:45;5.60;73.00
2767;DHT22;1391;46.74287300;11.63683300;2023-04-15T07:30:14;5.40;74.20
2767;DHT22;1391;46.74287300;11.63683300;2023-04-15T07:32:42;5.40;76.60
2767;DHT22;1391;46.74287300;11.63683300;2023-04-15T07:35:09;5.40;75.50
2767;DHT22;1391;46.74287300;11.63683300;2023-04-15T07:37:36;5.50;74.30
2767;DHT22;1391;46.74287300;11.63683300;2023-04-15T07:40:04;5.80;74.40
2767;DHT22;1391;46.74287300;11.63683300;2023-04-15T07:42:33;5.90;73.10
2767;DHT22;1391;46.74287300;11.63683300;2023-04-15T07:45:01;5.80;70.60
2767;DHT22;1391;46.74287300;11.63683300;2023-04-15T07:47:30;6.00;71.70
2767;DHT22;1391;46.74287300;11.63683300;2023-04-15T07:50:00;6.50;71.40
2767;DHT22;1391;46.74287300;11.63683300;2023-04-15T07:52:27;6.60;69.90
2767;DHT22;1391;46.74287300;11.63683300;2023-04-15T07:54:55;6.40;66.90
2767;DHT22;1391;46.74287300;11.63683300;2023-04-15T07:57:22;6.60;65.00
2767;DHT22;1391;46.74287300;11.63683300;2023-04-15T07:59:50;6.60;68.10
2767;DHT22;1391;46.74287300;11.63683300;2023-04-15T08:02:17;6.90;69.40
2767;DHT22;1391;46.74287300;11.63683300;2023-04-15T08:04:46;7.00;68.50
2767;DHT22;1391;46.74287300;11.63683300;2023-04-15T08:07:13;7.00;66.90
2767;DHT22;1391;46.74287300;11.63683300;2023-04-15T08:09:41;6.80;68.20
2767;DHT22;1391;46.74287300;11.63683300;2023-04-15T08:12:08;6.90;66.20
2767;DHT22;1391;46.74287300;11.63683300;2023-04-15T08:14:38;7.00;66.10
2767;DHT22;1391;46.74287300;11.63683300;2023-04-15T08:17:05;7.00;67.90
2767;DHT22;1391;46.74287300;11.63683300;2023-04-15T08:19:32;7.00;61.30
2767;DHT22;1391;46.74287300;11.63683300;2023-04-15T08:22:02;7.10;63.80
2767;DHT22;1391;46.74287300;11.63683300;2023-04-15T08:24:30;7.60;63.50
2767;DHT22;1391;46.74287300;11.63683300;2023-04-15T08:26:58;7.10;59.20
2767;DHT22;1391;46.74287300;11.63683300;2023-04-15T08:29:26;7.30;59.60
2767;DHT22;1391;46.74287300;11.63683300;2023-04-15T08:31:54;7.40;50.20
2767;DHT22;1391;46.74287300;11.63683300;2023-04-15T08:34:22;7.50;51.10
2767;DHT22;1391;46.74287300;11.63683300;2023-04-15T08:36:49;7.40;49.50
2767;DHT22;1391;46.74287300;11.63683300;2023-04-15T08:39:18;8.10;48.70
2767;DHT22;1391;46.74287300;11.63683300;2023-04-15T08:41:47;8.10;51.80
2767;DHT22;1391;46.74287300;11.63683300;2023-04-15T08:44:18;7.90;50.70
2767;DHT22;1391;46.74287300;11.63683300;2023-04-15T08:46:47;8.20;49.00
2767;DHT22;1391;46.74287300;11.63683300;2023-04-15T08:49:14;8.50;48.00
2767;DHT22;1391;46.74287300;11.63683300;2023-04-15T08:51:44;7.80;46.40
2767;DHT22;1391;46.74287300;11.63683300;2023-04-15T08:54:11;8.10;44.80
2767;DHT22;1391;46.74287300;11.63683300;2023-04-15T08:56:41;8.60;46.90
2767;DHT22;1391;46.74287300;11.63683300;2023-04-15T08:59:08;8.90;46.00
2767;DHT22;1391;46.74287300;11.63683300;2023-04-15T09:01:36;8.20;42.20
2767;DHT22;1391;46.74287300;11.63683300;2023-04-15T09:04:04;8.40;41.50
2767;DHT22;1391;46.74287300;11.63683300;2023-04-15T09:06:33;8.40;43.40
2767;DHT22;1391;46.74287300;11.63683300;2023-04-15T09:09:01;8.30;46.80
2767;DHT22;1391;46.74287300;11.63683300;2023-04-15T09:11:29;8.20;41.60
2767;DHT22;1391;46.74287300;11.63683300;2023-04-15T09:13:58;8.60;42.30
2767;DHT22;1391;46.74287300;11.63683300;2023-04-15T09:16:26;8.30;41.00
2767;DHT22;1391;46.74287300;11.63683300;2023-04-15T09:18:53;8.70;41.10
2767;DHT22;1391;46.74287300;11.63683300;2023-04-15T09:21:21;8.60;39.50
2767;DHT22;1391;46.74287300;11.63683300;2023-04-15T09:23:59;8.50;39.40
2767;DHT22;1391;46.74287300;11.63683300;2023-04-15T09:26:32;9.00;45.20
2767;DHT22;1391;46.74287300;11.63683300;2023-04-15T09:29:05;8.90;39.40
2767;DHT22;1391;46.74287300;11.63683300;2023-04-15T09:31:34;9.30;41.20
2767;DHT22;1391;46.74287300;11.63683300;2023-04-15T09:34:01;9.40;39.60
2767;DHT22;1391;46.74287300;11.63683300;2023-04-15T09:36:29;9.40;40.20
2767;DHT22;1391;46.74287300;11.63683300;2023-04-15T09:39:04;9.30;41.20
2767;DHT22;1391;46.74287300;11.63683300;2023-04-15T09:41:31;9.30;39.50
2767;DHT22;1391;46.74287300;11.63683300;2023-04-15T09:43:59;9.40;42.20
2767;DHT22;1391;46.74287300;11.63683300;2023-04-15T09:46:44;9.80;44.60
2767;DHT22;1391;46.74287300;11.63683300;2023-04-15T09:49:12;9.90;37.40
2767;DHT22;1391;46.74287300;11.63683300;2023-04-15T09:51:40;9.80;40.10
2767;DHT22;1391;46.74287300;11.63683300;2023-04-15T09:54:09;9.70;35.70
2767;DHT22;1391;46.74287300;11.63683300;2023-04-15T09:56:37;9.90;37.40
2767;DHT22;1391;46.74287300;11.63683300;2023-04-15T09:59:07;9.80;32.20
2767;DHT22;1391;46.74287300;11.63683300;2023-04-15T10:01:35;10.10;32.80
2767;DHT22;1391;46.74287300;11.63683300;2023-04-15T10:04:04;10.30;33.40
2767;DHT22;1391;46.74287300;11.63683300;2023-04-15T10:06:32;10.70;31.90
2767;DHT22;1391;46.74287300;11.63683300;2023-04-15T10:09:01;10.40;30.40
2767;DHT22;1391;46.74287300;11.63683300;2023-04-15T10:11:29;10.50;31.60
2767;DHT22;1391;46.74287300;11.63683300;2023-04-15T10:13:57;10.30;31.40
2767;DHT22;1391;46.74287300;11.63683300;2023-04-15T10:16:26;10.60;30.80
2767;DHT22;1391;46.74287300;11.63683300;2023-04-15T10:18:55;10.50;30.80
2767;DHT22;1391;46.74287300;11.63683300;2023-04-15T10:21:25;10.30;30.50
2767;DHT22;1391;46.74287300;11.63683300;2023-04-15T10:23:54;10.70;33.00
2767;DHT22;1391;46.74287300;11.63683300;2023-04-15T10:26:22;10.70;30.90
2767;DHT22;1391;46.74287300;11.63683300;2023-04-15T10:28:51;10.70;28.10
2767;DHT22;1391;46.74287300;11.63683300;2023-04-15T10:31:19;10.60;26.10
2767;DHT22;1391;46.74287300;11.63683300;2023-04-15T10:33:47;10.40;26.00
2767;DHT22;1391;46.74287300;11.63683300;2023-04-15T10:36:15;10.70;26.40
2767;DHT22;1391;46.74287300;11.63683300;2023-04-15T10:38:44;11.00;26.50
2767;DHT22;1391;46.74287300;11.63683300;2023-04-15T10:41:17;11.50;26.40
2767;DHT22;1391;46.74287300;11.63683300;2023-04-15T10:43:50;11.50;26.70
2767;DHT22;1391;46.74287300;11.63683300;2023-04-15T10:46:21;11.30;29.30
2767;DHT22;1391;46.74287300;11.63683300;2023-04-15T10:48:51;11.30;33.10
2767;DHT22;1391;46.74287300;11.63683300;2023-04-15T10:51:29;11.70;26.10
2767;DHT22;1391;46.74287300;11.63683300;2023-04-15T10:53:59;11.60;21.50
2767;DHT22;1391;46.74287300;11.63683300;2023-04-15T10:56:30;11.30;21.30
2767;DHT22;1391;46.74287300;11.63683300;2023-04-15T10:58:59;11.40;21.20
2767;DHT22;1391;46.74287300;11.63683300;2023-04-15T11:01:54;11.60;20.10
2767;DHT22;1391;46.74287300;11.63683300;2023-04-15T11:04:52;12.10;20.30
2767;DHT22;1391;46.74287300;11.63683300;2023-04-15T11:07:39;12.10;17.50
2767;DHT22;1391;46.74287300;11.63683300;2023-04-15T11:13:21;12.10;21.40
2767;DHT22;1391;46.74287300;11.63683300;2023-04-15T11:16:01;11.90;17.80
2767;DHT22;1391;46.74287300;11.63683300;2023-04-15T11:18:31;12.10;19.10
2767;DHT22;1391;46.74287300;11.63683300;2023-04-15T11:21:05;12.00;12.90
2767;DHT22;1391;46.74287300;11.63683300;2023-04-15T11:23:36;12.10;16.40
2767;DHT22;1391;46.74287300;11.63683300;2023-04-15T11:26:07;12.10;17.90
2767;DHT22;1391;46.74287300;11.63683300;2023-04-15T11:28:37;12.10;13.10
2767;DHT22;1391;46.74287300;11.63683300;2023-04-15T11:31:06;12.00;14.50
2767;DHT22;1391;46.74287300;11.63683300;2023-04-15T11:33:36;11.90;11.80
2767;DHT22;1391;46.74287300;11.63683300;2023-04-15T11:36:04;12.10;19.30
2767;DHT22;1391;46.74287300;11.63683300;2023-04-15T11:38:33;12.20;16.70
2767;DHT22;1391;46.74287300;11.63683300;2023-04-15T11:41:00;12.10;12.70
2767;DHT22;1391;46.74287300;11.63683300;2023-04-15T11:43:31;12.10;15.80
2767;DHT22;1391;46.74287300;11.63683300;2023-04-15T11:46:01;11.90;16.20
2767;DHT22;1391;46.74287300;11.63683300;2023-04-15T11:48:31;12.00;11.50
2767;DHT22;1391;46.74287300;11.63683300;2023-04-15T11:51:01;12.20;23.10
2767;DHT22;1391;46.74287300;11.63683300;2023-04-15T11:53:40;11.90;16.40
2767;DHT22;1391;46.74287300;11.63683300;2023-04-15T11:56:09;12.10;18.50
2767;DHT22;1391;46.74287300;11.63683300;2023-04-15T11:58:38;12.00;18.10
2767;DHT22;1391;46.74287300;11.63683300;2023-04-15T12:01:07;12.60;9.50
2767;DHT22;1391;46.74287300;11.63683300;2023-04-15T12:03:39;12.40;14.60
2767;DHT22;1391;46.74287300;11.63683300;2023-04-15T12:06:11;12.40;21.10
2767;DHT22;1391;46.74287300;11.63683300;2023-04-15T12:08:57;12.70;16.70
2767;DHT22;1391;46.74287300;11.63683300;2023-04-15T12:11:36;12.60;10.50
2767;DHT22;1391;46.74287300;11.63683300;2023-04-15T12:14:09;12.50;10.60
2767;DHT22;1391;46.74287300;11.63683300;2023-04-15T12:16:40;12.50;8.90
2767;DHT22;1391;46.74287300;11.63683300;2023-04-15T12:19:11;12.50;12.40
2767;DHT22;1391;46.74287300;11.63683300;2023-04-15T12:21:40;12.40;11.70
2767;DHT22;1391;46.74287300;11.63683300;2023-04-15T12:24:11;12.50;12.10
2767;DHT22;1391;46.74287300;11.63683300;2023-04-15T12:26:44;12.40;15.10
2767;DHT22;1391;46.74287300;11.63683300;2023-04-15T12:29:15;12.40;10.50
2767;DHT22;1391;46.74287300;11.63683300;2023-04-15T12:31:49;12.70;12.90
2767;DHT22;1391;46.74287300;11.63683300;2023-04-15T12:34:25;12.70;10.40
2767;DHT22;1391;46.74287300;11.63683300;2023-04-15T12:36:55;12.50;12.00
2767;DHT22;1391;46.74287300;11.63683300;2023-04-15T12:39:23;12.50;8.10
2767;DHT22;1391;46.74287300;11.63683300;2023-04-15T12:41:51;12.40;12.20
2767;DHT22;1391;46.74287300;11.63683300;2023-04-15T12:44:21;12.60;10.70
2767;DHT22;1391;46.74287300;11.63683300;2023-04-15T12:46:49;12.60;19.20
2767;DHT22;1391;46.74287300;11.63683300;2023-04-15T12:49:17;12.40;14.50
2767;DHT22;1391;46.74287300;11.63683300;2023-04-15T12:51:46;12.50;16.60
2767;DHT22;1391;46.74287300;11.63683300;2023-04-15T12:54:15;12.30;10.70
2767;DHT22;1391;46.74287300;11.63683300;2023-04-15T12:56:43;12.60;8.30
2767;DHT22;1391;46.74287300;11.63683300;2023-04-15T12:59:11;12.70;9.60
2767;DHT22;1391;46.74287300;11.63683300;2023-04-15T13:01:40;12.80;13.60
2767;DHT22;1391;46.74287300;11.63683300;2023-04-15T13:04:07;13.00;10.60
2767;DHT22;1391;46.74287300;11.63683300;2023-04-15T13:06:35;12.50;8.50
2767;DHT22;1391;46.74287300;11.63683300;2023-04-15T13:09:03;13.00;8.00
2767;DHT22;1391;46.74287300;11.63683300;2023-04-15T13:11:31;13.10;11.50
2767;DHT22;1391;46.74287300;11.63683300;2023-04-15T13:14:00;13.10;9.10
2767;DHT22;1391;46.74287300;11.63683300;2023-04-15T13:16:28;13.10;10.80
2767;DHT22;1391;46.74287300;11.63683300;2023-04-15T13:18:58;13.10;15.00
2767;DHT22;1391;46.74287300;11.63683300;2023-04-15T13:21:26;12.70;10.30
2767;DHT22;1391;46.74287300;11.63683300;2023-04-15T13:23:53;12.60;7.70
2767;DHT22;1391;46.74287300;11.63683300;2023-04-15T13:26:21;12.40;10.40
2767;DHT22;1391;46.74287300;11.63683300;2023-04-15T13:28:48;12.90;12.30
2767;DHT22;1391;46.74287300;11.63683300;2023-04-15T13:31:16;13.10;11.50
2767;DHT22;1391;46.74287300;11.63683300;2023-04-15T13:33:43;13.10;14.20
2767;DHT22;1391;46.74287300;11.63683300;2023-04-15T13:36:12;13.10;6.60
2767;DHT22;1391;46.74287300;11.63683300;2023-04-15T13:38:40;13.10;10.00
2767;DHT22;1391;46.74287300;11.63683300;2023-04-15T13:41:07;13.20;13.80
2767;DHT22;1391;46.74287300;11.63683300;2023-04-15T13:43:35;13.20;10.20
2767;DHT22;1391;46.74287300;11.63683300;2023-04-15T13:46:02;13.00;12.60
2767;DHT22;1391;46.74287300;11.63683300;2023-04-15T13:48:30;13.20;11.80
2767;DHT22;1391;46.74287300;11.63683300;2023-04-15T13:50:57;12.80;10.50
2767;DHT22;1391;46.74287300;11.63683300;2023-04-15T13:53:26;13.10;9.80